Accueil
METAR-TAF:

METAR-TAF

Aéroports :

Aéroport de Venise-Marco-Polo

Venise, Italie

latitude: 45-30N, longitude: 012-20E, altitude: 2 m

Observation

Le bulletin a été fait il y a 17 minutes, à 10:20 UTC
Vent 9 kt de est/nord-est
Température 11°C
Humidité 66%
Pression 1016 hPa
Visibilité 10 km ou plus
pas de nuages en-dessous de 1500 mètres et pas de cumulonimbus.

METAR: LIPZ 291020Z 06009KT CAVOK 11/05 Q1016 NOSIG

Heure: 11:37 (10:37 UTC)

Prévision

Le bulletin a été fait il y a 5 heures et 37 minutes, à 05:00 UTC
Prévision valable du 29 à 06 UTC au 01 à 12 UTC
Vent 5 kt de direction variable
Visibilité 10 km ou plus
pas de nuages en-dessous de 1500 mètres et pas de cumulonimbus.
Temporairement
du 01 à 00 UTC au 01 à 06 UTC
Visibilité: 4000 m
pluie

TAF: LIPZ 290500Z 2906/0112 VRB05KT CAVOK TEMPO 0100/0106 4000 RA

Observations et prévisions météorologiques de plus de 4000 aéroports (messages METAR et TAF).

Les stations disponibles sont représentées par des disques jaunes et rouges sur la carte.

Passer la souris dessus pour voir le nom de la station.

Cliquer dessus pour voir les observations et prévisions météorologiques.

Pour changer de carte: cliquez sur les boutons verts avec une croix noire pour zoomer, sur le bouton vert avec un tiret pour effectuer un zoom arrière, ou sur les flèches vertes pour les cartes adjacentes.


METAR-TAF: